createdAt,value
2023-02-24T00:02:20.419Z,100554.50
2023-02-24T00:06:39.058Z,100553.53
2023-02-24T00:10:52.448Z,100546.66
2023-02-24T00:15:05.361Z,100550.16
2023-02-24T00:19:20.042Z,100548.19
2023-02-24T00:23:32.422Z,100546.28
2023-02-24T00:27:44.872Z,100540.97
2023-02-24T00:32:07.024Z,100545.34
2023-02-24T00:36:24.056Z,100546.19
2023-02-24T00:40:37.540Z,100542.59
2023-02-24T00:44:50.151Z,100548.81
2023-02-24T00:49:08.013Z,100546.13
2023-02-24T00:53:22.909Z,100541.66
2023-02-24T00:57:35.728Z,100548.72
2023-02-24T01:01:50.850Z,100539.88
2023-02-24T01:06:03.796Z,100537.19
2023-02-24T01:10:18.730Z,100535.44
2023-02-24T01:14:33.781Z,100538.84
2023-02-24T01:18:50.054Z,100538.84
2023-02-24T01:23:03.716Z,100528.31
2023-02-24T01:27:20.603Z,100525.63
2023-02-24T01:31:33.020Z,100527.38
2023-02-24T01:35:45.905Z,100535.22
2023-02-24T01:39:59.741Z,100528.22
2023-02-24T01:44:15.007Z,100536.94
2023-02-24T01:48:30.263Z,100538.69
2023-02-24T01:52:45.889Z,100536.06
2023-02-24T01:56:59.123Z,100540.25
2023-02-24T02:01:11.555Z,100537.50
2023-02-24T02:05:25.267Z,100541.00
2023-02-24T02:09:43.284Z,100533.91
2023-02-24T02:13:57.169Z,100534.56
2023-02-24T02:18:25.918Z,100530.25
2023-02-24T02:23:19.681Z,100534.59
2023-02-24T02:27:38.302Z,100530.94
2023-02-24T02:32:38.652Z,100528.19
2023-02-24T02:36:57.680Z,100542.13
2023-02-24T02:41:23.991Z,100540.34
2023-02-24T02:45:56.280Z,100534.13
2023-02-24T02:50:30.843Z,100538.63
2023-02-24T02:54:50.759Z,100536.75
2023-02-24T02:59:07.548Z,100534.22
2023-02-24T03:03:22.530Z,100535.94
2023-02-24T03:07:43.087Z,100528.81
2023-02-24T03:12:02.479Z,100529.69
2023-02-24T03:16:18.892Z,100531.41
2023-02-24T03:20:40.025Z,100530.66
2023-02-24T03:24:53.815Z,100531.53
2023-02-24T03:29:36.797Z,100524.63
2023-02-24T03:34:00.931Z,100528.16
2023-02-24T03:38:14.504Z,100522.88
2023-02-24T03:42:34.075Z,100519.25
2023-02-24T03:46:46.825Z,100519.22
2023-02-24T03:50:59.774Z,100526.31
2023-02-24T03:56:02.178Z,100517.50
2023-02-24T04:00:37.402Z,100513.88
2023-02-24T04:05:05.971Z,100510.19
2023-02-24T04:09:57.456Z,100507.72
2023-02-24T04:14:25.045Z,100512.91
2023-02-24T04:18:40.874Z,100508.59
2023-02-24T04:23:02.771Z,100514.81
2023-02-24T04:27:16.995Z,100513.91
2023-02-24T04:31:32.842Z,100516.59
2023-02-24T04:35:48.387Z,100513.06
2023-02-24T04:40:03.570Z,100506.00
2023-02-24T04:44:21.452Z,100514.66
2023-02-24T04:48:36.984Z,100518.03
2023-02-24T04:53:01.209Z,100509.28
2023-02-24T04:57:14.708Z,100507.56
2023-02-24T05:01:28.148Z,100500.41
2023-02-24T05:05:43.219Z,100503.84
2023-02-24T05:09:55.611Z,100509.97
2023-02-24T05:14:08.463Z,100508.22
2023-02-24T05:18:21.163Z,100510.81
2023-02-24T05:22:33.568Z,100515.16
2023-02-24T05:26:46.972Z,100522.09
2023-02-24T05:31:08.719Z,100513.44
2023-02-24T05:35:21.446Z,100523.22
2023-02-24T05:39:35.469Z,100520.75
2023-02-24T05:43:55.229Z,100524.31
2023-02-24T05:48:07.587Z,100532.25
2023-02-24T05:52:20.749Z,100529.75
2023-02-24T05:56:38.077Z,100537.81
2023-02-24T06:00:50.512Z,100536.19
2023-02-24T06:05:04.761Z,100538.94
2023-02-24T06:09:17.178Z,100540.84
2023-02-24T06:13:29.617Z,100550.69
2023-02-24T06:17:42.174Z,100556.19
2023-02-24T06:21:55.969Z,100567.00
2023-02-24T06:26:19.758Z,100566.31
2023-02-24T06:30:33.130Z,100557.75
2023-02-24T06:34:46.005Z,100566.72
2023-02-24T06:38:58.415Z,100563.31
2023-02-24T06:43:11.230Z,100551.72
2023-02-24T06:47:23.724Z,100551.06
2023-02-24T06:51:36.060Z,100561.25
2023-02-24T06:55:49.224Z,100545.41
2023-02-24T07:00:17.279Z,100551.28
2023-02-24T07:04:30.093Z,100565.13
2023-02-24T07:08:44.331Z,100574.91
2023-02-24T07:12:56.755Z,100564.38
2023-02-24T07:17:09.369Z,100557.50
2023-02-24T07:21:23.794Z,100557.91
2023-02-24T07:25:36.277Z,100560.06
2023-02-24T07:29:53.532Z,100558.34
2023-02-24T07:34:06.712Z,100558.25
2023-02-24T07:38:23.220Z,100560.97
2023-02-24T07:42:35.694Z,100558.38
2023-02-24T07:46:52.621Z,100553.91
2023-02-24T07:51:13.451Z,100544.25
2023-02-24T07:55:31.435Z,100546.91
2023-02-24T07:59:47.891Z,100561.91
2023-02-24T08:04:08.387Z,100554.78
2023-02-24T08:08:25.810Z,100552.97
2023-02-24T08:12:42.995Z,100546.00
2023-02-24T08:17:05.620Z,100553.03
2023-02-24T08:21:21.253Z,100559.16
2023-02-24T08:25:36.911Z,100558.09
2023-02-24T08:30:00.619Z,100557.03
2023-02-24T08:34:16.359Z,100540.69
2023-02-24T08:38:40.259Z,100539.22
2023-02-24T08:42:52.758Z,100543.06
2023-02-24T08:47:07.772Z,100542.63
2023-02-24T08:51:29.203Z,100551.09
2023-02-24T08:55:43.003Z,100547.41
2023-02-24T08:59:58.249Z,100551.09
2023-02-24T09:04:13.075Z,100557.47
2023-02-24T09:08:36.060Z,100546.06
2023-02-24T09:12:53.841Z,100544.94
2023-02-24T09:17:11.802Z,100545.63
2023-02-24T09:21:42.485Z,100542.94
2023-02-24T09:25:54.883Z,100545.56
2023-02-24T09:30:08.376Z,100543.50
2023-02-24T09:34:20.674Z,100538.34
2023-02-24T09:39:11.359Z,100540.72
2023-02-24T09:43:31.060Z,100530.16
2023-02-24T09:47:57.601Z,100539.16
2023-02-24T09:52:17.734Z,100539.25
2023-02-24T09:56:57.520Z,100529.81
2023-02-24T10:01:33.755Z,100536.84
2023-02-24T10:06:04.926Z,100512.41
2023-02-24T10:10:36.157Z,100509.88
2023-02-24T10:15:32.500Z,100503.78
2023-02-24T10:19:45.078Z,100492.75
2023-02-24T10:24:14.634Z,100488.84
2023-02-24T10:28:52.186Z,100490.56
2023-02-24T10:33:06.454Z,100487.28
2023-02-24T10:37:28.717Z,100471.63
2023-02-24T10:41:50.213Z,100468.31
2023-02-24T10:46:17.647Z,100467.28
2023-02-24T10:50:55.043Z,100470.72
2023-02-24T10:55:41.650Z,100455.03
2023-02-24T11:00:19.399Z,100460.16
2023-02-24T11:05:10.139Z,100452.84
2023-02-24T11:09:28.003Z,100447.66
2023-02-24T11:14:07.484Z,100439.91
2023-02-24T11:18:23.522Z,100432.41
2023-02-24T11:22:39.890Z,100425.16
2023-02-24T11:26:52.702Z,100421.00
2023-02-24T11:31:28.831Z,100419.41
2023-02-24T11:35:48.663Z,100414.00
2023-02-24T11:40:23.557Z,100408.03
2023-02-24T11:44:54.604Z,100405.38
2023-02-24T11:49:22.310Z,100394.69
2023-02-24T11:53:57.879Z,100392.44
2023-02-24T11:58:44.622Z,100382.25
2023-02-24T12:03:09.744Z,100372.88
2023-02-24T12:07:50.692Z,100372.69
2023-02-24T12:12:13.602Z,100372.81
2023-02-24T12:16:40.856Z,100360.75
2023-02-24T12:21:10.782Z,100354.75
2023-02-24T12:25:36.049Z,100357.63
2023-02-24T12:30:34.457Z,100360.25
2023-02-24T12:35:07.767Z,100349.84
2023-02-24T12:39:32.440Z,100343.16
2023-02-24T12:44:13.976Z,100338.81
2023-02-24T12:49:03.929Z,100328.19
2023-02-24T12:53:41.733Z,100323.44
2023-02-24T12:58:18.180Z,100323.50
2023-02-24T13:03:24.519Z,100318.25
2023-02-24T13:07:49.940Z,100308.31
2023-02-24T13:12:28.309Z,100310.72
2023-02-24T13:16:41.897Z,100306.13
2023-02-24T13:21:23.047Z,100298.09
2023-02-24T13:25:39.882Z,100290.19
2023-02-24T13:29:53.571Z,100284.00
2023-02-24T13:34:14.966Z,100290.38
2023-02-24T13:38:33.169Z,100284.06
2023-02-24T13:43:01.809Z,100289.00
2023-02-24T13:47:41.035Z,100272.63
2023-02-24T13:52:00.034Z,100278.56
2023-02-24T13:56:34.399Z,100272.13
2023-02-24T14:01:01.570Z,100270.84
2023-02-24T14:05:41.762Z,100264.47
2023-02-24T14:10:01.683Z,100265.00
2023-02-24T14:14:19.055Z,100261.91
2023-02-24T14:18:31.707Z,100256.47
2023-02-24T14:22:46.769Z,100254.72
2023-02-24T14:27:01.262Z,100253.75
2023-02-24T14:31:16.543Z,100251.72
2023-02-24T14:35:58.237Z,100250.88
2023-02-24T14:40:16.372Z,100253.91
2023-02-24T14:44:30.365Z,100243.19
2023-02-24T14:48:44.388Z,100244.16
2023-02-24T14:53:13.566Z,100235.56
2023-02-24T14:57:30.820Z,100233.97
2023-02-24T15:01:51.979Z,100248.28
2023-02-24T15:06:15.946Z,100241.63
2023-02-24T15:10:31.280Z,100249.19
2023-02-24T15:14:51.365Z,100246.72
2023-02-24T15:19:03.872Z,100242.38
2023-02-24T15:23:38.385Z,100243.16
2023-02-24T15:27:58.697Z,100242.31
2023-02-24T15:32:21.777Z,100234.69
2023-02-24T15:36:36.321Z,100240.00
2023-02-24T15:41:01.335Z,100235.22
2023-02-24T15:45:30.806Z,100245.41
2023-02-24T15:49:43.440Z,100245.63
2023-02-24T15:53:56.992Z,100243.56
2023-02-24T15:58:18.920Z,100243.41
2023-02-24T16:02:31.303Z,100251.91
2023-02-24T16:06:54.783Z,100250.47
2023-02-24T16:11:07.148Z,100260.94
2023-02-24T16:15:27.522Z,100267.78
2023-02-24T16:19:40.744Z,100266.41
2023-02-24T16:23:53.166Z,100262.09
2023-02-24T16:28:05.713Z,100275.91
2023-02-24T16:32:18.475Z,100274.47
2023-02-24T16:36:31.616Z,100270.31
2023-02-24T16:40:46.888Z,100269.50
2023-02-24T16:44:59.213Z,100269.00
2023-02-24T16:49:18.412Z,100271.94
2023-02-24T16:53:31.255Z,100272.28
2023-02-24T16:57:45.115Z,100267.94
2023-02-24T17:01:58.169Z,100274.94
2023-02-24T17:06:10.747Z,100273.25
2023-02-24T17:10:24.429Z,100286.00
2023-02-24T17:14:36.715Z,100277.41
2023-02-24T17:18:49.109Z,100272.91
2023-02-24T17:23:01.719Z,100273.72
2023-02-24T17:27:14.561Z,100272.63
2023-02-24T17:31:32.025Z,100275.50
2023-02-24T17:35:47.333Z,100275.03
2023-02-24T17:39:59.981Z,100282.03
2023-02-24T17:44:12.427Z,100276.13
2023-02-24T17:48:24.920Z,100281.44
2023-02-24T17:52:37.535Z,100279.59
2023-02-24T17:56:49.941Z,100275.44
2023-02-24T18:01:03.717Z,100279.06
2023-02-24T18:05:16.283Z,100283.63
2023-02-24T18:09:29.416Z,100283.16
2023-02-24T18:13:42.040Z,100276.53
2023-02-24T18:17:54.551Z,100278.19
2023-02-24T18:22:07.465Z,100282.13
2023-02-24T18:26:21.901Z,100284.03
2023-02-24T18:30:39.468Z,100285.78
2023-02-24T18:34:51.833Z,100279.63
2023-02-24T18:39:05.271Z,100284.06
2023-02-24T18:43:17.663Z,100281.47
2023-02-24T18:47:29.950Z,100286.72
2023-02-24T18:51:42.508Z,100273.38
2023-02-24T18:56:02.723Z,100277.50
2023-02-24T19:00:15.798Z,100277.66
2023-02-24T19:04:28.483Z,100283.16
2023-02-24T19:08:42.694Z,100274.72
2023-02-24T19:12:55.099Z,100285.53
2023-02-24T19:17:07.499Z,100286.69
2023-02-24T19:21:21.178Z,100288.19
2023-02-24T19:25:34.569Z,100292.94
2023-02-24T19:29:47.071Z,100285.63
2023-02-24T19:34:02.118Z,100282.22
2023-02-24T19:38:17.323Z,100292.09
2023-02-24T19:42:30.820Z,100296.53
2023-02-24T19:46:43.655Z,100291.00
2023-02-24T19:50:56.260Z,100300.03
2023-02-24T19:55:10.300Z,100303.50
2023-02-24T19:59:23.130Z,100303.28
2023-02-24T20:03:39.826Z,100309.69
2023-02-24T20:07:52.239Z,100298.25
2023-02-24T20:12:04.720Z,100306.03
2023-02-24T20:16:19.434Z,100301.75
2023-02-24T20:20:31.962Z,100295.66
2023-02-24T20:24:47.735Z,100299.22
2023-02-24T20:29:02.106Z,100299.19
2023-02-24T20:33:15.327Z,100300.00
2023-02-24T20:37:27.625Z,100295.69
2023-02-24T20:41:40.799Z,100288.63
2023-02-24T20:45:53.841Z,100284.16
2023-02-24T20:50:06.888Z,100277.91
2023-02-24T20:54:19.421Z,100277.09
2023-02-24T20:58:32.139Z,100284.16
2023-02-24T21:02:45.711Z,100289.50
2023-02-24T21:06:58.147Z,100278.91
2023-02-24T21:11:12.713Z,100278.06
2023-02-24T21:15:25.105Z,100278.09
2023-02-24T21:19:38.011Z,100269.25
2023-02-24T21:23:51.545Z,100271.91
2023-02-24T21:28:04.134Z,100255.94
2023-02-24T21:32:16.710Z,100257.63
2023-02-24T21:36:29.180Z,100242.78
2023-02-24T21:40:41.606Z,100247.22
2023-02-24T21:44:59.016Z,100242.72
2023-02-24T21:49:15.101Z,100245.31
2023-02-24T21:53:30.300Z,100248.97
2023-02-24T21:57:45.040Z,100243.69
2023-02-24T22:01:57.518Z,100229.66
2023-02-24T22:06:11.736Z,100233.03
2023-02-24T22:10:24.231Z,100224.28
2023-02-24T22:14:36.730Z,100221.72
2023-02-24T22:18:50.941Z,100212.00
2023-02-24T22:23:03.665Z,100202.19
2023-02-24T22:27:16.134Z,100195.94
2023-02-24T22:31:32.561Z,100192.44
2023-02-24T22:35:44.926Z,100185.53
2023-02-24T22:39:58.571Z,100190.94
2023-02-24T22:44:11.346Z,100180.31
2023-02-24T22:48:27.019Z,100169.56
2023-02-24T22:52:40.164Z,100158.09
2023-02-24T22:56:56.621Z,100144.94
2023-02-24T23:01:14.251Z,100135.28
2023-02-24T23:05:26.725Z,100131.72
2023-02-24T23:09:39.202Z,100135.31
2023-02-24T23:13:52.277Z,100137.91
2023-02-24T23:18:04.875Z,100134.28
2023-02-24T23:22:19.288Z,100130.72
2023-02-24T23:26:34.705Z,100123.81
2023-02-24T23:30:48.028Z,100126.56
2023-02-24T23:35:00.483Z,100133.59
2023-02-24T23:39:15.189Z,100145.00
2023-02-24T23:43:27.682Z,100131.84
2023-02-24T23:47:40.056Z,100134.47
2023-02-24T23:51:52.570Z,100128.31
2023-02-24T23:56:18.285Z,100118.69
